Time;durP1;ratioP1;P1;durP2;ratioP2;P2;SDS_P1;SDS_P2;PMS_P1;PMS_P2;Temp;Humidity;BMP_temperature;BMP_pressure;BME280_temperature;BME280_humidity;BME280_pressure;Samples;Min_cycle;Max_cycle;Signal;HPM_P1;HPM_P2
2021/07/17 00:01:47;;;;;;;;;18.50;17.00;;;;;18.29;68.70;102258.56;4996975;28;45519;-68
2021/07/17 00:04:12;;;;;;;;;18.25;14.25;;;;;18.26;69.05;102254.25;4996297;28;45626;-69
2021/07/17 00:06:38;;;;;;;;;19.75;15.50;;;;;18.21;68.50;102247.44;4996656;28;46577;-68
2021/07/17 00:09:06;;;;;;;;;17.25;13.75;;;;;18.23;69.25;102253.56;4996435;28;45492;-69
2021/07/17 00:11:31;;;;;;;;;17.75;16.25;;;;;18.18;69.39;102259.13;4996925;28;45440;-68
2021/07/17 00:13:56;;;;;;;;;19.25;15.50;;;;;18.15;69.11;102247.75;4996044;28;45430;-68
2021/07/17 00:16:26;;;;;;;;;15.00;15.00;;;;;18.14;69.05;102248.69;4996953;28;46580;-68
2021/07/17 00:18:55;;;;;;;;;16.50;12.25;;;;;18.11;69.57;102254.16;4996318;28;45366;-68
2021/07/17 00:21:22;;;;;;;;;12.00;11.25;;;;;18.08;70.05;102257.84;4996072;28;45282;-69
2021/07/17 00:23:47;;;;;;;;;17.75;15.75;;;;;18.05;69.89;102243.84;4995518;28;45398;-68
2021/07/17 00:26:13;;;;;;;;;18.00;15.50;;;;;18.04;69.88;102253.63;4996216;28;46395;-68
2021/07/17 00:28:38;;;;;;;;;18.75;14.25;;;;;18.02;69.78;102260.81;4995146;28;45526;-68
2021/07/17 00:31:04;;;;;;;;;17.25;13.50;;;;;17.96;69.69;102256.69;4978633;28;45329;-68
2021/07/17 00:33:29;;;;;;;;;16.50;15.00;;;;;17.92;69.70;102254.25;4996146;28;45232;-68
2021/07/17 00:35:54;;;;;;;;;15.75;14.00;;;;;17.90;69.72;102248.13;4996298;28;45489;-69
2021/07/17 00:38:20;;;;;;;;;14.50;14.00;;;;;17.86;70.37;102244.78;5010887;28;45423;-69
2021/07/17 00:40:45;;;;;;;;;19.75;15.50;;;;;17.89;70.00;102254.38;4996292;28;45377;-68
2021/07/17 00:43:10;;;;;;;;;17.50;13.75;;;;;17.81;69.97;102244.13;4996015;28;45622;-69
2021/07/17 00:45:36;;;;;;;;;17.75;14.25;;;;;17.77;70.24;102255.84;4996542;28;46173;-69
2021/07/17 00:48:01;;;;;;;;;19.25;15.50;;;;;17.75;70.55;102249.75;4995450;28;45738;-68
2021/07/17 00:50:27;;;;;;;;;17.50;13.50;;;;;17.76;70.19;102255.94;4996431;28;45654;-68
2021/07/17 00:52:52;;;;;;;;;19.00;18.00;;;;;17.70;69.98;102239.31;4995608;28;45459;-69
2021/07/17 00:55:20;;;;;;;;;18.75;14.25;;;;;17.70;70.77;102251.75;4995800;28;45582;-68
2021/07/17 00:57:49;;;;;;;;;18.25;15.00;;;;;17.68;70.61;102256.25;4995852;28;45938;-69
2021/07/17 01:00:16;;;;;;;;;17.50;14.00;;;;;17.58;71.17;102247.88;4995904;28;45572;-68
2021/07/17 01:02:52;;;;;;;;;17.75;16.25;;;;;17.64;70.97;102260.84;4994965;28;45500;-70
2021/07/17 01:05:18;;;;;;;;;17.75;17.25;;;;;17.60;71.29;102261.09;4995791;28;45586;-68
2021/07/17 01:07:48;;;;;;;;;18.75;14.50;;;;;17.57;71.47;102261.25;4995641;28;45604;-69
2021/07/17 01:10:16;;;;;;;;;16.00;15.50;;;;;17.54;71.00;102253.41;4995823;28;45699;-69
2021/07/17 01:12:42;;;;;;;;;16.50;15.25;;;;;17.56;70.98;102257.72;4995952;28;45467;-69
2021/07/17 01:15:08;;;;;;;;;19.75;15.50;;;;;17.51;71.80;102256.22;4995497;28;45707;-68
2021/07/17 01:17:34;;;;;;;;;20.25;15.50;;;;;17.50;71.01;102252.72;4995315;28;45476;-69
2021/07/17 01:20:01;;;;;;;;;18.00;17.00;;;;;17.50;71.70;102251.84;4995172;28;45592;-69
2021/07/17 01:22:27;;;;;;;;;18.00;14.75;;;;;17.49;71.60;102264.28;4995681;28;45470;-69
2021/07/17 01:24:53;;;;;;;;;18.75;14.75;;;;;17.41;71.64;102254.00;4995632;28;45383;-69
2021/07/17 01:27:18;;;;;;;;;15.25;14.25;;;;;17.43;71.68;102262.75;4994934;28;45452;-68
2021/07/17 01:29:47;;;;;;;;;20.00;16.75;;;;;17.38;71.57;102250.59;4995226;28;45513;-69
2021/07/17 01:32:16;;;;;;;;;18.75;17.00;;;;;17.39;71.41;102255.00;4994678;28;45347;-69
2021/07/17 01:34:42;;;;;;;;;19.00;15.25;;;;;17.36;72.02;102250.69;4994981;28;46805;-69
2021/07/17 01:37:07;;;;;;;;;24.00;18.50;;;;;17.33;72.29;102253.50;4995353;28;45467;-68
2021/07/17 01:39:33;;;;;;;;;19.50;17.50;;;;;17.29;71.68;102246.59;4995977;28;45302;-69
2021/07/17 01:41:58;;;;;;;;;23.50;21.25;;;;;17.27;72.38;102239.63;4995123;28;45345;-69
2021/07/17 01:44:23;;;;;;;;;19.25;16.25;;;;;17.22;72.62;102239.84;4994107;28;45387;-69
2021/07/17 01:46:49;;;;;;;;;21.00;17.50;;;;;17.21;72.71;102243.44;4995352;28;45615;-69
2021/07/17 01:49:14;;;;;;;;;22.25;15.50;;;;;17.18;72.14;102244.47;4995164;28;45813;-69
2021/07/17 01:51:39;;;;;;;;;18.00;15.50;;;;;17.16;72.67;102240.13;4995472;28;45388;-69
2021/07/17 01:54:05;;;;;;;;;17.75;17.25;;;;;17.15;72.55;102241.06;4994750;28;45359;-69
2021/07/17 01:56:31;;;;;;;;;19.50;16.00;;;;;17.12;72.21;102244.75;4995306;28;45440;-69
2021/07/17 01:58:56;;;;;;;;;20.25;17.50;;;;;17.08;72.52;102239.66;5008589;28;45511;-69
2021/07/17 02:01:23;;;;;;;;;21.00;19.00;;;;;17.10;73.12;102243.06;4994650;28;45460;-69
2021/07/17 02:03:50;;;;;;;;;16.75;14.75;;;;;17.10;73.24;102251.91;4995314;28;46500;-70
2021/07/17 02:06:23;;;;;;;;;21.25;17.75;;;;;17.06;72.77;102242.34;4995046;28;45609;-69
2021/07/17 02:08:48;;;;;;;;;19.00;14.50;;;;;17.02;72.85;102247.88;4994938;28;45436;-70
2021/07/17 02:11:13;;;;;;;;;22.75;17.25;;;;;17.02;73.02;102251.41;4994663;28;45588;-68
2021/07/17 02:13:39;;;;;;;;;20.50;16.75;;;;;16.97;73.44;102247.25;4994210;28;46543;-68
2021/07/17 02:16:05;;;;;;;;;21.00;16.75;;;;;16.93;73.20;102236.75;4994293;28;46148;-69
2021/07/17 02:18:33;;;;;;;;;24.75;20.00;;;;;16.93;73.76;102242.06;5010593;28;45411;-69
2021/07/17 02:21:03;;;;;;;;;19.00;18.00;;;;;16.92;73.24;102248.31;4994280;28;45377;-69
2021/07/17 02:23:29;;;;;;;;;23.50;19.00;;;;;16.90;73.28;102247.50;4994264;28;46536;-68
2021/07/17 02:25:55;;;;;;;;;20.25;16.50;;;;;16.85;73.37;102246.00;4994546;28;45369;-69
2021/07/17 02:28:20;;;;;;;;;20.50;16.50;;;;;16.79;73.84;102239.16;4993141;28;45512;-68
2021/07/17 02:30:47;;;;;;;;;18.50;18.00;;;;;16.79;73.55;102248.94;4995221;28;45399;-70
2021/07/17 02:33:12;;;;;;;;;18.75;16.00;;;;;16.75;74.01;102236.72;4994092;28;46527;-68
2021/07/17 02:35:38;;;;;;;;;20.25;17.25;;;;;16.72;74.13;102239.53;4994280;28;45389;-69
2021/07/17 02:38:03;;;;;;;;;19.25;18.00;;;;;16.70;74.35;102236.88;4992993;28;45329;-69
2021/07/17 02:40:29;;;;;;;;;26.75;19.75;;;;;16.69;74.17;102227.19;4995094;28;45826;-68
2021/07/17 02:42:54;;;;;;;;;25.50;19.25;;;;;16.67;74.25;102235.25;4994054;28;45610;-69
2021/07/17 02:45:20;;;;;;;;;25.00;20.25;;;;;16.66;73.98;102237.97;4994600;28;45517;-69
2021/07/17 02:47:45;;;;;;;;;32.75;23.75;;;;;16.65;74.56;102244.19;4994303;28;45693;-69
2021/07/17 02:50:11;;;;;;;;;27.50;24.00;;;;;16.62;74.16;102236.38;4993752;28;45370;-69
2021/07/17 02:52:36;;;;;;;;;25.25;22.50;;;;;16.60;73.79;102235.56;4976691;28;48378;-69
2021/07/17 02:55:03;;;;;;;;;29.75;24.50;;;;;16.55;74.36;102234.91;4993954;28;45571;-69
2021/07/17 02:57:29;;;;;;;;;24.75;22.00;;;;;16.54;74.18;102233.19;4992227;28;45475;-68
2021/07/17 02:59:54;;;;;;;;;27.25;22.00;;;;;16.50;74.64;102234.28;5008835;28;45515;-69
2021/07/17 03:02:19;;;;;;;;;24.50;22.50;;;;;16.47;74.98;102234.41;4993741;28;45339;-68
2021/07/17 03:04:45;;;;;;;;;22.00;18.25;;;;;16.45;74.96;102239.78;4994532;28;45416;-69
2021/07/17 03:07:10;;;;;;;;;23.50;19.50;;;;;16.42;75.06;102235.47;4994274;28;45771;-69
2021/07/17 03:09:35;;;;;;;;;22.75;20.00;;;;;16.42;74.88;102237.25;5009749;28;45521;-69
2021/07/17 03:12:01;;;;;;;;;21.25;21.00;;;;;16.38;75.37;102240.97;4993392;28;46364;-69
2021/07/17 03:14:27;;;;;;;;;17.75;17.75;;;;;16.41;74.78;102246.16;4993852;28;45489;-69
2021/07/17 03:16:52;;;;;;;;;22.75;16.50;;;;;16.36;75.99;102251.66;4993644;28;45920;-69
2021/07/17 03:19:17;;;;;;;;;21.75;19.75;;;;;16.36;75.52;102248.13;4993481;28;45499;-69
2021/07/17 03:21:43;;;;;;;;;21.25;16.00;;;;;16.34;75.24;102247.31;4994300;28;50652;-69
2021/07/17 03:24:08;;;;;;;;;23.00;19.50;;;;;16.35;75.30;102255.22;4992841;28;45402;-69
2021/07/17 03:26:33;;;;;;;;;18.25;15.25;;;;;16.30;75.56;102243.94;4993958;28;45428;-68
2021/07/17 03:28:59;;;;;;;;;21.75;17.25;;;;;16.29;75.70;102244.03;4996181;28;45527;-69
2021/07/17 03:31:28;;;;;;;;;22.25;19.75;;;;;16.25;75.98;102237.97;5012019;28;52175;-69
2021/07/17 03:33:55;;;;;;;;;23.25;20.75;;;;;16.27;75.95;102240.56;4997403;28;45855;-69
2021/07/17 03:36:20;;;;;;;;;27.00;22.50;;;;;16.27;76.19;102241.41;4997214;28;45439;-69
2021/07/17 03:38:46;;;;;;;;;19.50;18.75;;;;;16.28;75.96;102252.88;4997174;28;45381;-68
2021/07/17 03:41:11;;;;;;;;;20.00;18.75;;;;;16.27;76.18;102245.88;4996385;28;46736;-68
2021/07/17 03:43:36;;;;;;;;;25.75;17.50;;;;;16.27;76.33;102241.41;4996862;28;45410;-68
2021/07/17 03:46:02;;;;;;;;;20.00;16.25;;;;;16.25;76.14;102237.97;4997112;28;45320;-69
2021/07/17 03:48:27;;;;;;;;;20.00;16.00;;;;;16.25;75.84;102234.47;4997512;28;45505;-68
2021/07/17 03:50:52;;;;;;;;;18.00;14.75;;;;;16.23;75.86;102233.66;4976215;28;48435;-68
2021/07/17 03:53:18;;;;;;;;;27.75;21.75;;;;;16.22;75.96;102235.44;4996432;28;60258;-69
2021/07/17 03:55:43;;;;;;;;;27.75;22.75;;;;;16.16;75.47;102231.28;4996714;28;45301;-68
2021/07/17 03:58:08;;;;;;;;;24.00;20.00;;;;;16.16;76.12;102238.38;4996127;28;45299;-69
2021/07/17 04:00:34;;;;;;;;;24.50;21.25;;;;;16.09;75.98;102231.59;4996967;28;45402;-69
2021/07/17 04:03:02;;;;;;;;;22.00;20.25;;;;;16.08;76.39;102237.84;5011822;28;45325;-68
2021/07/17 04:05:28;;;;;;;;;21.50;17.25;;;;;16.08;76.45;102248.44;4992662;28;45448;-69
2021/07/17 04:07:53;;;;;;;;;24.75;20.25;;;;;16.10;76.21;102243.94;4976093;28;45560;-69
2021/07/17 04:10:18;;;;;;;;;23.75;22.25;;;;;15.96;76.82;102228.59;4991704;28;45525;-69
2021/07/17 04:12:44;;;;;;;;;27.00;20.75;;;;;16.04;76.84;102252.16;4994481;28;45505;-69
2021/07/17 04:15:10;;;;;;;;;21.50;18.75;;;;;16.03;76.44;102238.03;4996377;28;45447;-68
2021/07/17 04:17:35;;;;;;;;;29.25;23.50;;;;;16.04;76.76;102245.06;4998271;28;45380;-68
2021/07/17 04:20:00;;;;;;;;;21.25;19.00;;;;;16.04;76.60;102246.84;4995743;28;45349;-68
2021/07/17 04:22:26;;;;;;;;;19.75;16.50;;;;;16.08;77.12;102251.97;4993821;28;45487;-68
2021/07/17 04:24:51;;;;;;;;;31.00;23.50;;;;;16.06;76.87;102244.97;4996816;28;46098;-69
2021/07/17 04:27:16;;;;;;;;;26.75;21.50;;;;;16.07;76.95;102249.34;4997002;28;45463;-68
2021/07/17 04:29:42;;;;;;;;;22.25;20.00;;;;;16.10;76.93;102241.28;4991203;28;46447;-69
2021/07/17 04:32:07;;;;;;;;;22.25;20.50;;;;;16.09;77.21;102243.06;4997078;28;45534;-69
2021/07/17 04:34:33;;;;;;;;;22.25;20.50;;;;;16.15;77.01;102252.56;4994761;28;45337;-69
2021/07/17 04:36:58;;;;;;;;;28.00;23.25;;;;;16.16;76.90;102252.50;4995545;28;45381;-68
2021/07/17 04:39:24;;;;;;;;;22.75;17.75;;;;;16.13;77.05;102249.09;4997176;28;46319;-69
2021/07/17 04:41:49;;;;;;;;;25.25;22.00;;;;;16.20;76.85;102253.22;5000844;28;45659;-70
2021/07/17 04:44:15;;;;;;;;;26.25;19.50;;;;;16.22;77.37;102247.84;5004074;28;45517;-68
2021/07/17 04:46:40;;;;;;;;;25.25;18.00;;;;;16.29;76.97;102260.81;5011331;28;45587;-69
2021/07/17 04:49:05;;;;;;;;;21.75;19.75;;;;;16.32;76.71;102255.34;4994300;28;45712;-69
2021/07/17 04:51:31;;;;;;;;;24.75;20.00;;;;;16.28;76.58;102248.44;4997958;28;45445;-68
2021/07/17 04:53:56;;;;;;;;;30.25;22.00;;;;;16.37;76.37;102263.13;4997416;28;45446;-69
2021/07/17 04:56:21;;;;;;;;;23.00;20.75;;;;;16.39;76.47;102259.50;4997443;28;45494;-68
2021/07/17 04:58:46;;;;;;;;;24.75;21.25;;;;;16.37;76.64;102255.16;4995511;28;46654;-68
2021/07/17 05:01:12;;;;;;;;;23.00;21.50;;;;;16.44;76.71;102268.13;4993235;28;45367;-69
2021/07/17 05:03:37;;;;;;;;;24.00;21.75;;;;;16.49;77.14;102267.88;4997500;28;45563;-68
2021/07/17 05:06:04;;;;;;;;;23.00;18.25;;;;;16.61;76.56;102266.50;4996846;28;45445;-69
2021/07/17 05:08:29;;;;;;;;;30.00;21.25;;;;;16.66;76.28;102270.69;4995995;28;45710;-68
2021/07/17 05:10:54;;;;;;;;;27.25;22.50;;;;;16.75;76.37;102269.44;4991710;28;45873;-68
2021/07/17 05:13:20;;;;;;;;;24.75;20.50;;;;;16.84;76.44;102274.34;5023509;28;45475;-69
2021/07/17 05:15:45;;;;;;;;;26.00;20.00;;;;;16.90;76.29;102265.22;4997640;28;45381;-68
2021/07/17 05:18:11;;;;;;;;;28.00;23.00;;;;;16.95;75.45;102269.41;4997112;28;45631;-69
2021/07/17 05:20:38;;;;;;;;;23.00;19.50;;;;;17.02;76.12;102271.78;4996595;28;45518;-69
2021/07/17 05:23:03;;;;;;;;;29.75;20.50;;;;;17.06;76.10;102262.75;4996108;28;45518;-69
2021/07/17 05:25:29;;;;;;;;;26.50;20.25;;;;;17.16;75.71;102277.31;4993772;28;45559;-69
2021/07/17 05:27:55;;;;;;;;;28.25;21.00;;;;;17.15;75.10;102264.97;4994602;28;45649;-69
2021/07/17 05:30:20;;;;;;;;;27.50;25.25;;;;;17.18;74.79;102265.72;4997418;28;45478;-69
2021/07/17 05:32:45;;;;;;;;;26.25;22.00;;;;;17.18;75.12;102260.41;4996325;28;45745;-69
2021/07/17 05:35:11;;;;;;;;;24.50;22.75;;;;;17.28;75.37;102275.88;4995672;28;45534;-69
2021/07/17 05:37:36;;;;;;;;;26.75;21.25;;;;;17.31;75.26;102262.47;5007629;28;45772;-69
2021/07/17 05:40:03;;;;;;;;;27.75;22.75;;;;;17.39;74.75;102257.66;4994631;28;45687;-69
2021/07/17 05:42:29;;;;;;;;;26.25;22.50;;;;;17.43;74.36;102257.44;4994937;28;45521;-69
2021/07/17 05:44:54;;;;;;;;;19.25;15.25;;;;;17.44;74.40;102255.66;4991694;28;45744;-69
2021/07/17 05:47:19;;;;;;;;;31.00;23.00;;;;;17.46;74.11;102259.94;4996074;28;61407;-69
2021/07/17 05:49:44;;;;;;;;;26.00;20.75;;;;;17.45;74.56;102254.72;4994449;28;46741;-68
2021/07/17 05:52:10;;;;;;;;;24.75;20.75;;;;;17.59;74.28;102268.22;4992234;28;46226;-68
2021/07/17 05:54:35;;;;;;;;;21.75;20.50;;;;;17.60;74.24;102258.44;4996986;28;45409;-70
2021/07/17 05:57:01;;;;;;;;;25.25;22.50;;;;;17.67;73.61;102262.53;4995518;28;46547;-69
2021/07/17 05:59:26;;;;;;;;;27.50;20.50;;;;;17.66;73.67;102260.81;4995832;28;45471;-69
2021/07/17 06:01:52;;;;;;;;;28.50;24.50;;;;;17.67;73.85;102265.19;4996273;28;45545;-69
2021/07/17 06:04:17;;;;;;;;;29.50;23.75;;;;;17.70;73.46;102265.03;4992081;28;45482;-69
2021/07/17 06:06:42;;;;;;;;;24.75;21.00;;;;;17.77;73.70;102268.28;4996244;28;45535;-69
2021/07/17 06:09:08;;;;;;;;;32.25;24.50;;;;;17.86;73.39;102268.72;5003838;28;45673;-69
2021/07/17 06:11:33;;;;;;;;;24.75;21.50;;;;;17.89;73.62;102262.34;5001329;28;45650;-69
2021/07/17 06:13:59;;;;;;;;;23.75;20.75;;;;;17.98;73.69;102267.22;4995946;28;45475;-69
2021/07/17 06:16:24;;;;;;;;;27.50;24.00;;;;;18.02;73.17;102255.50;4992004;28;46417;-69
2021/07/17 06:18:49;;;;;;;;;26.75;23.75;;;;;18.08;73.44;102262.31;4993624;28;45338;-70
2021/07/17 06:21:15;;;;;;;;;28.75;22.75;;;;;18.12;73.59;102256.78;4995513;28;45477;-69
2021/07/17 06:23:40;;;;;;;;;21.75;20.00;;;;;18.23;72.93;102266.88;4995995;28;45506;-70
2021/07/17 06:26:06;;;;;;;;;27.75;25.50;;;;;18.23;72.74;102272.19;4995394;28;45459;-69
2021/07/17 06:28:31;;;;;;;;;26.50;24.25;;;;;18.26;72.74;102278.19;4992951;28;45361;-68
2021/07/17 06:30:57;;;;;;;;;27.25;22.75;;;;;18.26;72.78;102269.34;4994590;28;45640;-68
2021/07/17 06:33:22;;;;;;;;;29.50;25.25;;;;;18.36;72.92;102275.94;4996055;28;45431;-69
2021/07/17 06:35:47;;;;;;;;;25.00;22.75;;;;;18.42;72.63;102283.59;4995021;28;46168;-68
2021/07/17 06:38:13;;;;;;;;;26.25;23.25;;;;;18.49;72.57;102284.16;4995445;28;45517;-69
2021/07/17 06:40:38;;;;;;;;;26.75;22.00;;;;;18.54;71.91;102282.13;4993946;28;45526;-69
2021/07/17 06:43:03;;;;;;;;;27.25;20.25;;;;;18.65;72.32;102284.22;4993299;28;45429;-69
2021/07/17 06:45:29;;;;;;;;;27.75;25.75;;;;;18.76;72.13;102282.75;4993349;28;45451;-69
2021/07/17 06:47:54;;;;;;;;;29.00;24.00;;;;;18.82;71.30;102275.38;4992629;28;45420;-69
2021/07/17 06:50:21;;;;;;;;;29.75;24.00;;;;;18.89;71.28;102280.28;4994855;28;51282;-69
2021/07/17 06:52:47;;;;;;;;;27.50;24.75;;;;;19.03;71.34;102284.88;4994124;28;45424;-69
2021/07/17 06:55:13;;;;;;;;;33.25;24.00;;;;;19.17;70.71;102290.34;4995550;28;46286;-69
2021/07/17 06:57:39;;;;;;;;;27.50;24.25;;;;;19.31;70.99;102284.22;5006751;28;45893;-70
2021/07/17 07:00:07;;;;;;;;;26.75;24.50;;;;;19.54;70.49;102289.16;4992703;28;48411;-68
2021/07/17 07:02:33;;;;;;;;;29.25;25.25;;;;;19.83;70.08;102292.00;4999163;28;45849;-69
2021/07/17 07:04:59;;;;;;;;;28.75;24.50;;;;;20.11;69.45;102279.75;4998128;28;46297;-68
2021/07/17 07:07:24;;;;;;;;;28.75;25.00;;;;;20.42;68.82;102277.00;4994939;28;45658;-69
2021/07/17 07:09:49;;;;;;;;;24.00;22.50;;;;;20.76;68.46;102281.16;4998678;28;45554;-69
2021/07/17 07:12:16;;;;;;;;;26.75;23.25;;;;;21.05;67.43;102283.84;4999154;28;45377;-69
2021/07/17 07:14:41;;;;;;;;;30.50;24.75;;;;;21.26;67.63;102289.66;4998613;28;46600;-68
2021/07/17 07:17:06;;;;;;;;;35.75;24.75;;;;;21.41;66.73;102299.41;4997673;28;45511;-68
2021/07/17 07:19:32;;;;;;;;;22.50;19.25;;;;;21.48;66.00;102302.56;5002124;28;50872;-68
2021/07/17 07:21:57;;;;;;;;;24.75;21.25;;;;;21.49;66.58;102296.25;5000719;28;45490;-69
2021/07/17 07:24:22;;;;;;;;;25.00;23.75;;;;;21.43;65.88;102302.84;4999483;28;46426;-69
2021/07/17 07:26:48;;;;;;;;;30.75;25.00;;;;;21.38;65.72;102304.94;4998326;28;45553;-69
2021/07/17 07:29:13;;;;;;;;;31.50;23.00;;;;;21.32;65.29;102302.69;4998885;28;45209;-69
2021/07/17 07:31:38;;;;;;;;;32.25;22.75;;;;;21.29;66.19;102305.50;4996839;28;45379;-69
2021/07/17 07:34:04;;;;;;;;;29.25;22.00;;;;;21.17;66.06;102306.28;4992661;28;45436;-69
2021/07/17 07:36:29;;;;;;;;;58.25;44.00;;;;;21.07;65.89;102322.88;4997024;28;45382;-69
2021/07/17 07:38:54;;;;;;;;;35.25;26.25;;;;;20.92;65.87;102306.94;4996922;28;45477;-70
2021/07/17 07:41:20;;;;;;;;;19.00;19.00;;;;;20.87;66.09;102312.56;4991030;28;45500;-70
2021/07/17 07:43:46;;;;;;;;;26.00;22.25;;;;;20.81;66.20;102313.81;4994147;28;46185;-69
2021/07/17 07:46:12;;;;;;;;;29.25;23.50;;;;;20.85;66.63;102315.34;4992911;28;45706;-69
2021/07/17 07:48:39;;;;;;;;;31.50;24.25;;;;;20.89;66.65;102312.50;4993919;28;45442;-69
2021/07/17 07:51:04;;;;;;;;;30.25;26.50;;;;;21.09;66.66;102314.78;4993740;28;45674;-69
2021/07/17 07:53:30;;;;;;;;;23.25;19.75;;;;;21.18;66.43;102321.38;4992742;28;46342;-69
2021/07/17 07:55:55;;;;;;;;;18.75;13.75;;;;;21.23;66.46;102321.94;4989590;28;45439;-70
2021/07/17 07:58:21;;;;;;;;;26.50;24.50;;;;;21.28;66.43;102319.84;4993261;28;45492;-72
2021/07/17 08:00:46;;;;;;;;;22.50;20.00;;;;;21.30;65.70;102329.53;4990353;28;45362;-71
2021/07/17 08:03:12;;;;;;;;;31.75;24.50;;;;;21.32;66.21;102332.09;4981362;28;46619;-71
2021/07/17 08:05:37;;;;;;;;;23.25;20.50;;;;;21.30;65.83;102334.00;4987943;28;49667;-71
2021/07/17 08:08:02;;;;;;;;;27.25;24.00;;;;;21.29;65.72;102335.75;4988574;28;45393;-71
2021/07/17 08:10:28;;;;;;;;;28.75;25.25;;;;;21.27;65.73;102329.66;4991263;28;45618;-70
2021/07/17 08:12:54;;;;;;;;;27.25;24.00;;;;;21.28;65.52;102330.53;4989186;28;46257;-71
2021/07/17 08:15:19;;;;;;;;;25.75;22.25;;;;;21.31;66.00;102325.03;4989089;28;45467;-70
2021/07/17 08:17:45;;;;;;;;;25.00;22.25;;;;;21.32;66.46;102322.25;4988683;28;45637;-71
2021/07/17 08:20:11;;;;;;;;;27.25;22.25;;;;;21.48;65.76;102318.59;4989072;28;45515;-71
2021/07/17 08:22:38;;;;;;;;;26.50;22.25;;;;;21.59;65.95;102314.28;4990668;28;46125;-71
2021/07/17 08:25:06;;;;;;;;;26.00;23.75;;;;;21.62;65.39;102314.09;4991762;28;45614;-70
2021/07/17 08:27:31;;;;;;;;;30.75;20.75;;;;;21.78;65.41;102335.38;4992270;28;45636;-71
2021/07/17 08:29:57;;;;;;;;;24.25;22.50;;;;;21.92;65.36;102320.22;4991974;28;46032;-71
2021/07/17 08:32:23;;;;;;;;;26.50;21.00;;;;;22.10;65.45;102327.03;4988479;28;46065;-70
2021/07/17 08:34:51;;;;;;;;;26.50;20.75;;;;;22.18;64.46;102321.19;4993261;28;45441;-71
2021/07/17 08:37:17;;;;;;;;;29.50;21.25;;;;;22.25;64.14;102325.19;4992500;28;45559;-71
2021/07/17 08:39:42;;;;;;;;;34.50;24.75;;;;;22.25;63.95;102319.84;4989509;28;45420;-71
2021/07/17 08:42:08;;;;;;;;;23.50;21.25;;;;;22.29;64.19;102321.31;4992927;28;46755;-71
2021/07/17 08:44:37;;;;;;;;;32.75;25.75;;;;;22.36;64.29;102315.47;4993490;28;45413;-71
2021/07/17 08:47:03;;;;;;;;;32.00;24.50;;;;;22.55;63.51;102323.13;4992340;28;45547;-71
2021/07/17 08:49:28;;;;;;;;;24.25;19.75;;;;;22.54;63.61;102310.66;4993058;28;45302;-71
2021/07/17 08:51:54;;;;;;;;;26.25;25.00;;;;;22.67;63.45;102318.72;4992958;28;46358;-68
2021/07/17 08:54:21;;;;;;;;;26.00;20.75;;;;;22.84;62.73;102328.28;4993225;28;45413;-72
2021/07/17 08:56:48;;;;;;;;;35.50;32.50;;;;;23.00;62.87;102328.94;4991962;28;45515;-69
2021/07/17 08:59:13;;;;;;;;;46.50;37.25;;;;;23.28;62.59;102321.63;4992615;28;45406;-70
2021/07/17 09:01:38;;;;;;;;;29.75;19.75;;;;;23.67;61.97;102315.25;4990661;28;46473;-70
2021/07/17 09:04:07;;;;;;;;;30.25;21.75;;;;;24.19;61.58;102317.59;4992269;28;45539;-70
2021/07/17 09:06:33;;;;;;;;;27.75;19.75;;;;;24.74;61.76;102312.50;4993560;28;45481;-70
2021/07/17 09:08:58;;;;;;;;;25.50;20.75;;;;;25.09;59.41;102312.44;4992350;28;45446;-70
2021/07/17 09:11:39;;;;;;;;;24.00;22.75;;;;;25.46;59.12;102306.81;4992447;28;45933;-70
2021/07/17 09:14:05;;;;;;;;;24.25;22.25;;;;;25.83;58.65;102307.34;4995316;28;45927;-71
2021/07/17 09:16:33;;;;;;;;;23.00;21.00;;;;;25.90;57.58;102313.09;4994598;28;45455;-71
2021/07/17 09:19:00;;;;;;;;;22.75;17.75;;;;;25.69;57.52;102313.88;4995463;28;45487;-71
2021/07/17 09:21:28;;;;;;;;;26.00;19.00;;;;;25.54;57.47;102304.34;4996999;28;46118;-70
2021/07/17 09:24:02;;;;;;;;;21.25;19.50;;;;;25.48;57.43;102310.25;4996529;28;45459;-70
2021/07/17 09:26:38;;;;;;;;;22.00;20.00;;;;;25.41;57.59;102309.00;4996861;28;45517;-70
2021/07/17 09:29:10;;;;;;;;;27.00;21.25;;;;;25.64;57.13;102307.16;4996434;28;45522;-70
2021/07/17 09:31:54;;;;;;;;;23.75;22.25;;;;;26.22;56.64;102297.78;4991515;28;47296;-71
2021/07/17 09:34:22;;;;;;;;;19.25;17.75;;;;;26.83;55.70;102296.19;5007768;28;45928;-70
2021/07/17 09:36:57;;;;;;;;;24.50;21.00;;;;;27.36;55.01;102298.75;5004466;28;45536;-70
2021/07/17 09:39:27;;;;;;;;;24.50;19.75;;;;;27.35;54.83;102292.47;4996201;28;45519;-71
2021/07/17 09:41:54;;;;;;;;;24.25;19.00;;;;;27.09;53.83;102293.94;4996656;28;46703;-70
2021/07/17 09:44:22;;;;;;;;;20.25;18.00;;;;;26.61;53.81;102289.97;4995946;28;45384;-70
2021/07/17 09:46:47;;;;;;;;;21.50;18.25;;;;;26.33;54.41;102290.63;4995876;28;45444;-70
2021/07/17 09:49:17;;;;;;;;;21.00;20.00;;;;;26.29;54.43;102298.97;4992742;28;45609;-70
2021/07/17 09:51:43;;;;;;;;;16.50;15.50;;;;;26.20;54.13;102302.44;4996874;28;47356;-71
2021/07/17 09:54:08;;;;;;;;;21.50;18.25;;;;;25.98;54.48;102295.31;4996161;28;45408;-71
2021/07/17 09:56:36;;;;;;;;;18.00;17.25;;;;;25.87;54.29;102297.19;4996813;28;45804;-71
2021/07/17 09:59:06;;;;;;;;;22.25;18.00;;;;;25.92;54.52;102303.91;4995421;28;45435;-71
2021/07/17 10:01:34;;;;;;;;;14.00;14.00;;;;;25.87;53.83;102299.88;4991245;28;46953;-71
2021/07/17 10:04:09;;;;;;;;;21.00;19.25;;;;;25.66;53.85;102302.47;4991809;28;45608;-71
2021/07/17 10:06:59;;;;;;;;;22.00;18.50;;;;;25.40;54.53;102305.47;4997796;28;45439;-69
2021/07/17 10:09:25;;;;;;;;;26.00;22.75;;;;;25.27;54.94;102304.75;4995533;28;45460;-69
2021/07/17 10:11:53;;;;;;;;;20.50;18.75;;;;;25.16;54.87;102305.63;4989958;28;47583;-69
2021/07/17 10:14:24;;;;;;;;;20.50;17.00;;;;;25.03;55.55;102310.22;4996194;28;45455;-70
2021/07/17 10:16:54;;;;;;;;;25.00;19.75;;;;;24.86;55.43;102305.31;4995633;28;45411;-68
2021/07/17 10:19:22;;;;;;;;;19.50;18.75;;;;;24.77;55.54;102306.91;4976000;28;45545;-69
2021/07/17 10:21:48;;;;;;;;;22.25;17.75;;;;;24.72;56.03;102301.88;4989536;28;46376;-69
2021/07/17 10:24:15;;;;;;;;;22.25;18.25;;;;;24.75;56.17;102299.94;4992081;28;45514;-69
2021/07/17 10:26:41;;;;;;;;;23.00;19.25;;;;;24.83;55.49;102298.34;4995367;28;45367;-71
2021/07/17 10:29:09;;;;;;;;;24.75;17.00;;;;;24.83;55.54;102301.03;4995699;28;45404;-69
2021/07/17 10:31:35;;;;;;;;;25.00;20.75;;;;;24.79;56.11;102293.31;4990183;28;48371;-69
2021/07/17 10:34:00;;;;;;;;;26.50;18.00;;;;;24.86;56.35;102297.25;4998223;28;45599;-69
2021/07/17 10:36:26;;;;;;;;;24.75;21.50;;;;;24.92;55.52;102291.41;4994703;28;45419;-69
2021/07/17 10:38:57;;;;;;;;;25.50;19.50;;;;;24.92;55.69;102292.25;4995685;28;45360;-69
2021/07/17 10:41:24;;;;;;;;;23.75;19.75;;;;;24.96;55.97;102276.72;4994827;28;45502;-68
2021/07/17 10:43:51;;;;;;;;;23.50;20.75;;;;;25.31;56.30;102291.88;4994652;28;45687;-68
2021/07/17 10:46:32;;;;;;;;;15.75;15.75;;;;;25.52;55.61;102282.06;4991254;28;45535;-69
2021/07/17 10:49:01;;;;;;;;;23.75;20.00;;;;;25.66;55.19;102278.25;4995094;28;45462;-69
2021/07/17 10:51:33;;;;;;;;;22.25;21.50;;;;;25.70;54.48;102277.88;4996075;28;46457;-69
2021/07/17 10:54:01;;;;;;;;;23.00;19.75;;;;;25.65;54.83;102274.72;4995157;28;45346;-69
2021/07/17 10:56:29;;;;;;;;;24.50;18.75;;;;;25.68;54.34;102285.19;4995413;28;45872;-70
2021/07/17 10:58:58;;;;;;;;;22.25;17.50;;;;;25.71;54.69;102284.13;4995188;28;45333;-69
2021/07/17 11:01:25;;;;;;;;;22.25;19.00;;;;;25.67;54.85;102277.25;4990889;28;46444;-71
2021/07/17 11:03:51;;;;;;;;;27.75;19.75;;;;;25.64;54.58;102281.06;4989776;28;45552;-69
2021/07/17 11:06:28;;;;;;;;;21.50;20.25;;;;;25.70;54.70;102283.25;4992995;28;45590;-69